Blowing Sand Mountains, Nevada Weather observations

Data are for observation ending at time listed.
 Day   Time    Ave.   Ave.  Ave.  Vector   Max.   Stn.    Total    Solar   Ave.  
  of    of     Air    Rel.  Wind   Wind    Wind   Baro.  Precip.   Rad.    Soil  
Year   Day     Temp.  Hum.  Speed  Dir.    Gust   Pres.                    Temp. 
2014   (PST)    F      %     mph   deg.    mph     mb.     in.     W/m2     F   
------------------------------------------------------------------------------
 107    6:30   35.5    35    0.3   254      2.2    878.6     0.00     139    999.0
 107    6:40   37.4    34    0.0     0      0.0    878.6     0.00     186    999.0
 107    6:50   39.8    34    1.0   353      3.9    878.7     0.00     215    999.0
 107    7:00   40.0    33    1.9   285      3.6    878.7     0.00     258    999.0
 107    7:10   42.8    32    0.2   257      1.8    878.7     0.00     303    999.0
 107    7:20   45.4    29    0.7   276      2.3    878.7     0.00     338    999.0
 107    7:30   46.0    29    1.1   263      3.1    878.7     0.00     370    999.0
 107    7:40   47.2    28    0.9   304      2.5    878.5     0.00     402    999.0
 107    7:50   49.5    27    1.1   273      2.7    878.3     0.00     434    999.0
 107    8:00   51.3    26    1.4   285      2.6    878.2     0.00     472    999.0
 107    8:10   53.7    24    1.6   274      2.9    878.0     0.00     504    999.0
 107    8:20   55.8    22    2.4   285      4.5    878.1     0.00     535    999.0
 107    8:30   57.1    21    3.1   294      4.2    878.0     0.00     565    999.0
 107    8:40   58.8    20    2.5   304      4.1    877.9     0.00     595    999.0
 107    8:50   61.1    18    1.9   282      3.8    877.8     0.00     625    999.0
 107    9:00   63.5    16    2.1    25      4.5    877.6     0.00     653    999.0
 107    9:10   64.2    15    2.7     9      5.5    877.5     0.00     680    999.0
 107    9:20   65.4    14    1.9    25      4.8    877.4     0.00     706    999.0
 107    9:30   66.7    14    2.6    69      5.6    877.3     0.00     731    999.0
 107    9:40   67.3    14    2.1    54      4.7    877.3     0.00     754    999.0
 107    9:50   68.6    14    3.0    51      5.8    877.1     0.00     777    999.0
 107   10:00   68.7    14    2.6    50      5.9    877.0     0.00     797    999.0
 107   10:10   69.9    13    2.4    57      5.3    876.9     0.00     817    999.0
 107   10:20   70.5    13    4.7    96     10.1    876.8     0.00     834    999.0
 107   10:30   70.9    13    5.7   258      8.8    876.5     0.00     848    999.0
 107   10:40   72.9    12    3.4   201      7.7    876.4     0.00     863    999.0
 107   10:50   74.1    11    4.2   153      9.6    876.4     0.00     882    999.0
 107   11:00   74.8    11    7.7   143     18.5    876.2     0.00     896    999.0
 107   11:10   74.4    11    6.0   120     12.6    876.0     0.00     913    999.0
 107   11:20   74.5    11    5.7   176     10.4    875.7     0.00     897    999.0
 107   11:30   75.4    11    4.8   202      8.2    875.6     0.00     807    999.0
 107   11:40   75.7    11    3.8   150      7.6    875.4     0.00     893    999.0
 107   11:50   76.8    10    5.0   132      9.6    875.2     0.00     800    999.0
 107   12:00   77.4    10    5.0   169      9.3    875.1     0.00     844    999.0
 107   12:10   77.7    10    5.5   227     11.6    874.9     0.00     881    999.0
 107   12:20   77.9    10    6.4   186     15.1    874.9     0.00     933    999.0
 107   12:30   77.6    10    5.5   115     17.7    874.7     0.00     932    999.0
 107   12:40   77.6    10    5.0    93     10.2    874.6     0.00     872    999.0
 107   12:50   78.5    10    2.9   193      7.8    874.5     0.00     939    999.0
 107   13:00   78.8    10    6.1   294     10.4    874.4     0.00     911    999.0
 107   13:10   78.5    10    5.0   292      9.5    874.3     0.00     839    999.0
 107   13:20   79.7    10    3.6   223      8.4    874.2     0.00     863    999.0
 107   13:30   80.6    10    3.1   341     10.6    874.1     0.00     832    999.0
 107   13:40   79.3    10    5.7   315     11.2    873.9     0.00     665    999.0
 107   13:50   79.2    10    6.8   310     16.1    873.9     0.00     636    999.0
 107   14:00   79.3    10    2.7   227      9.5    873.7     0.00     624    999.0
 107   14:10   80.5    10    4.0   222      8.8    873.6     0.00     576    999.0
 107   14:20   79.4    11    7.2   289     16.1    873.4     0.00     447    999.0
 107   14:30   78.7    11    7.7   291     14.5    873.3     0.00     435    999.0
 107   14:40   78.8    12    4.1   259      8.8    873.1     0.00     415    999.0
 107   14:50   79.0    12    3.9   287      9.0    873.0     0.00     435    999.0
 107   15:00   78.9    12    5.4   279      9.1    872.8     0.00     385    999.0
 107   15:10   79.0    11   11.1   309     16.6    872.7     0.00     421    999.0
 107   15:20   78.8    11    5.4   336     11.0    872.6     0.00     367    999.0
 107   15:30   79.1    11    4.4   321      7.3    872.6     0.00     354    999.0
 107   15:40   78.9    11    4.3   333      9.3    872.5     0.00     300    999.0
 107   15:50   78.6    11    7.5   308     11.9    872.4     0.00     296    999.0
 107   16:00   78.4    11    2.6   324      6.2    872.4     0.00     222    999.0
 107   16:10   78.6    12    4.1   270     11.0    872.3     0.00     177    999.0
 107   16:20   78.4    12    9.6   288     15.1    872.3     0.00     189    999.0
 107   16:30   77.8    12   14.4   266     19.6    872.3     0.00     179    999.0
 107   16:40   77.2    12   15.3   262     21.0    872.3     0.00     165    999.0
 107   16:50   76.9    11   14.4   260     19.9    872.4     0.00     140    999.0
 107   17:00   76.4    11   14.8   260     20.5    872.4     0.00     124    999.0
 107   17:10   76.2    11   14.0   252     21.3    872.5     0.00     108    999.0
 107   17:20   75.7    11   14.2   257     19.5    872.5     0.00      89    999.0
 107   17:30   75.2    11   15.0   252     20.5    872.5     0.00      73    999.0
 107   17:40   74.8    12   14.5   262     20.4    872.5     0.00      59    999.0
 107   17:50   74.4    12   13.1   257     18.1    872.6     0.00      47    999.0
 107   18:00   73.7    13   13.4   270     19.9    872.6     0.00      36    999.0
 107   18:10   73.3    14   15.2   271     20.2    872.6     0.00      25    999.0
 107   18:20   72.9    14   14.3   274     20.7    872.7     0.00      16    999.0
 107   18:30   72.4    15   13.6   275     20.1    872.9     0.00      10    999.0
 107   18:40   71.9    15   13.1   281     18.9    872.9     0.00       3    999.0
 107   18:50   71.3    16   13.2   281     20.7    872.9     0.00       1    999.0
 107   19:00   71.1    17   14.2   280     20.2    873.0     0.00       0    999.0
 107   19:10   70.6    18   12.8   290     18.3    873.3     0.00       0    999.0
 107   19:20   69.1    22    8.6   318     11.6    873.5     0.00       0    999.0
 107   19:30   68.9    22    7.0   329     10.6    873.8     0.00       0    999.0
 107   19:40   68.6    20    7.1   319     12.3    873.9     0.00       0    999.0
 107   19:50   68.6    19    7.6   311     11.6    874.1     0.00       0    999.0
 107   20:00   68.5    19    7.9   318     15.6    874.2     0.00       0    999.0
 107   20:10   68.1    20    8.9   329     13.0    874.4     0.00       0    999.0
 107   20:20   67.8    22    6.5   340     10.3    874.6     0.00       0    999.0
 107   20:30   67.2    23    7.4   329     13.1    874.7     0.00       0    999.0
 107   20:40   66.8    25    6.8   337     11.0    874.8     0.00       0    999.0
 107   20:50   66.0    26    6.5   303     10.7    874.9     0.00       0    999.0
 107   21:00   66.1    26    5.6   314      9.1    875.0     0.00       0    999.0
 107   21:10   67.4    23    7.0   307     18.6    875.1     0.00       0    999.0
 107   21:20   67.6    23    7.9   323     13.4    875.2     0.00       0    999.0
 107   21:30   66.4    26    8.1   329     13.0    875.3     0.00       0    999.0
 107   21:40   65.1    29    5.6   331      8.9    875.4     0.00       0    999.0
 107   21:50   65.2    27    5.9   311     14.4    875.3     0.00       0    999.0
 107   22:00   65.8    27    7.0   338     14.9    875.3     0.00       0    999.0
 107   22:10   64.7    30    8.8   346     19.7    875.5     0.00       0    999.0
 107   22:20   64.0    31    6.5     7     10.7    875.5     0.00       0    999.0
 107   22:30   64.6    29    6.4     4     11.1    875.6     0.00       0    999.0
 107   22:40   64.3    31    7.9    32     16.8    875.7     0.00       0    999.0
 107   22:50   64.1    30    6.4   344      9.5    875.8     0.00       0    999.0
 107   23:00   64.3    30    5.3    28     10.7    876.0     0.00       0    999.0
 107   23:10   63.8    30    8.1   357     13.2    875.9     0.00       0    999.0
 107   23:20   63.4    31    6.9    26     10.7    876.1     0.00       0    999.0
 107   23:30   63.2    31    8.4    28     13.3    876.1     0.00       0    999.0
 107   23:40   62.9    31    7.2    30     13.2    876.2     0.00       0    999.0
 107   23:50   62.8    31    7.2    22     11.2    876.1     0.00       0    999.0
 108    0:00   62.4    32    6.9    28     11.3    876.2     0.00       0    999.0
 108    0:10   62.1    32    7.4    16     12.1    876.3     0.00       0    999.0
 108    0:20   62.8    30   11.0   339     16.8    876.3     0.00       0    999.0
 108    0:30   62.7    29    9.2   340     13.3    876.4     0.00       0    999.0
 108    0:40   62.4    29    8.2   344     10.9    876.3     0.00       0    999.0
 108    0:50   62.3    29    9.2   329     13.4    876.4     0.00       0    999.0
 108    1:00   61.9    30   11.2   325     16.1    876.4     0.00       0    999.0
 108    1:10   60.9    31   13.2   327     20.1    876.4     0.00       0    999.0
 108    1:20   59.5    36   13.5   330     18.3    876.4     0.00       0    999.0
 108    1:30   58.6    38   15.2   334     20.0    876.4     0.00       0    999.0
 108    1:40   58.2    40   12.9   327     18.4    876.5     0.00       0    999.0
 108    1:50   58.0    40   10.4   327     17.8    876.6     0.00       0    999.0
 108    2:00   58.5    38    8.7   348     16.7    876.7     0.00       0    999.0
 108    2:10   57.9    40   13.9   356     21.8    876.8     0.00       0    999.0
 108    2:20   57.1    41   13.6   357     20.3    877.0     0.00       0    999.0
 108    2:30   56.7    41   12.0   353     17.8    877.0     0.00       0    999.0
 108    2:40   56.5    42    8.9   341     15.6    877.1     0.00       0    999.0
 108    2:50   55.8    43    6.9   336     11.9    877.4     0.00       0    999.0
 108    3:00   55.5    44    9.0   338     15.7    877.5     0.00       0    999.0
 108    3:10   55.1    44   10.8   348     20.0    877.5     0.00       0    999.0
 108    3:20   54.8    44    9.8   345     16.1    877.5     0.00       0    999.0
 108    3:30   54.6    44    9.4   343     16.1    877.7     0.00       0    999.0
 108    3:40   54.2    45    8.4   339     13.5    877.8     0.00       0    999.0
 108    3:50   53.9    45   10.5   350     15.3    877.9     0.00       0    999.0
 108    4:00   53.7    45   12.2   348     17.5    878.0     0.00       0    999.0
 108    4:10   53.6    45   10.7   341     17.7    878.1     0.00       0    999.0
 108    4:20   53.3    45    9.2   333     14.0    878.2     0.00       0    999.0
 108    4:30   53.2    45    9.5   322     14.3    878.3     0.00       0    999.0
 108    4:40   52.8    46    8.5   310     13.2    878.4     0.00       0    999.0
 108    4:50   52.4    46    8.4   317     13.2    878.6     0.00       0    999.0
 108    5:00   52.2    47    7.6   318     11.8    878.7     0.00       0    999.0
 108    5:10   51.8    47    7.0   303     12.5    878.9     0.00       0    999.0
 108    5:20   51.4    48    7.4   314     10.9    879.0     0.00       2    999.0
 108    5:30   51.1    49    6.3   322     13.7    879.2     0.00       7    999.0
 108    5:40   51.2    49    5.2   323     11.0    879.3     0.00      18    999.0
 108    5:50   50.7    49    5.1   301     11.0    879.4     0.00      26    999.0
 108    6:00   50.0    51    5.3   304      7.9    879.7     0.00      35    999.0
 108    6:10   50.0    51    4.5   310      7.7    879.8     0.00      44    999.0
 108    6:20   49.8    51    3.7   312      5.9    879.9     0.00      53    999.0

Return to Blowing Sand Mountains graphs page.


Western Regional Climate Center,wrcc@dri.edu